Thursday, August 25, 2016
11:33 UTC
  |  Log In   |  Register Free
Airport Search:

Vidalia Regional Airport
(KVDI)

Vidalia Regional Airport Diagram
No Airport Diagram Available

FAA data valid effective Jul 21 2016 - Sep 15 2016 (unless otherwise noted).

 
 
 
 
 
 
 
 
 
 
 
 
 
 
Current Aviation Weather for KVDI

Weather Summary


The most recent METAR observation for VDI was updated at: 12:55 UTC
METAR for VDI is not available. Closest METAR is for
METAR

METAR KVDI 251115Z 00000KT 10SM CLR 21/21 A3016 RMK AO2

METAR KVDI 251055Z 00000KT 10SM CLR 21/21 A3015 RMK AO2

METAR KVDI 251035Z 35003KT 10SM CLR 21/21 A3015 RMK AO2

METAR KVDI 251015Z 00000KT 10SM CLR 21/21 A3015 RMK AO2

METAR KVDI 250955Z 35003KT 10SM CLR 21/21 A3015 RMK AO2

METAR KVDI 250935Z 00000KT 10SM CLR 22/21 A3014 RMK AO2

METAR KVDI 250915Z 00000KT 10SM CLR 22/21 A3015 RMK AO2

METAR KVDI 250855Z 00000KT 10SM CLR 21/21 A3014 RMK AO2

METAR KVDI 250835Z 00000KT 10SM CLR 22/22 A3014 RMK AO2

METAR KAZE 251115Z 00000KT 10SM CLR 21/21 A3015 RMK AO2 T02110211

METAR KBHC 251115Z 00000KT 10SM CLR 20/20 A3014 RMK AO2 PNO

METAR KCWV 251115Z 00000KT 7SM CLR 18/18 A3015 RMK AO2 T01800180

TAF for VDI is not available.
TAF
Sorry we do not have any TAF information for VDI
GlobalAir.com is loading additional information.
 Current Weather at VDI
70.0 F° (21.0 C°)

North winds at 3.5 mph
Pressure:
30.15 in
Humidity:
100%
Wind:
North at 3.5 mph
Dew Point:
69.8 F° (21.0 C°)
Visibility:
10.00 mi
VDI NOAA Radar




Find All Airport Services Find A Hotel Find A Rental Car Find A Golf Course Find A Restaurant $100 Hamburger



Airport Weather Forecast for KVDI

Translated METAR for KVDI (1115 UTC)
METAR:
KVDI 251115Z AUTO Vidalia Regional, Vidalia, GA (KVDI). Aug 25, 1115Z, Automated. Wind is Calm, 10 statute miles visibility, Clear Skies, Temperature 21°C, Dewpoint 21°C, Altimeter is 30.16. Remarks: automated station with precipitation discriminator
Conditions at:
KVDI (Vidalia Rgnl, GA) observed 1115 UTC 25 August 2016
Temperature:
70.0 F° (21.0 C°)
Dewpoint:
not reported - refer to area weather report
Pressure:
30.15 Hg
Winds:
not reported
Visibility:
10.00
Ceiling:
at least 12,000 feet AGL
Clouds:
not reported - refer to area weather report
Remarks:
site is un-manned

Translated TAF for TAF for VDI is not available. Refer to local area forecast.
FBO's on the Field
FBO Company Facility Photos Services Transportation Aviation Fuel Prices: Prices include tax
Catering Weather Repair Courtesy Rental Type 100LL JetA JetA+ MOGAS 8087
 
Vidalia Regional Airport

This FBO has not yet been rated
FS:Phillips 66
Last Updated: Aug-01
Login to update fuel prices
SS:
Contact Vidalia Regional AirportMore FBO Information
 
Add another FBO Facility Photos Catering Weather Repair Courtesy Rental Type 100LL JetA JetA+ MOGAS 8087
Services Transportation Aviation Fuel Prices: Prices include tax


model-print
model-print
model-print
model-print